createdAt,value
2023-02-08T00:00:39.997Z,103544.94
2023-02-08T00:03:07.201Z,103539.34
2023-02-08T00:05:33.872Z,103541.34
2023-02-08T00:08:00.512Z,103542.25
2023-02-08T00:10:27.109Z,103541.09
2023-02-08T00:12:54.123Z,103540.19
2023-02-08T00:15:21.112Z,103545.91
2023-02-08T00:17:47.751Z,103543.19
2023-02-08T00:20:15.429Z,103534.72
2023-02-08T00:22:42.060Z,103542.56
2023-02-08T00:25:09.931Z,103542.56
2023-02-08T00:27:36.833Z,103546.50
2023-02-08T00:30:04.084Z,103544.84
2023-02-08T00:32:30.936Z,103551.50
2023-02-08T00:34:57.532Z,103542.91
2023-02-08T00:37:26.151Z,103549.84
2023-02-08T00:39:55.431Z,103548.03
2023-02-08T00:42:26.744Z,103543.81
2023-02-08T00:44:53.986Z,103536.53
2023-02-08T00:47:24.552Z,103540.34
2023-02-08T00:49:53.954Z,103540.16
2023-02-08T00:52:23.225Z,103539.13
2023-02-08T00:54:49.946Z,103550.59
2023-02-08T00:57:16.850Z,103554.38
2023-02-08T00:59:43.482Z,103552.25
2023-02-08T01:02:11.036Z,103561.63
2023-02-08T01:04:38.254Z,103563.44
2023-02-08T01:07:05.629Z,103559.38
2023-02-08T01:09:32.982Z,103560.13
2023-02-08T01:11:59.590Z,103549.84
2023-02-08T01:14:26.219Z,103555.91
2023-02-08T01:16:53.333Z,103547.16
2023-02-08T01:19:20.006Z,103543.81
2023-02-08T01:21:49.086Z,103543.81
2023-02-08T01:24:18.886Z,103548.19
2023-02-08T01:26:45.612Z,103531.88
2023-02-08T01:29:12.378Z,103534.13
2023-02-08T01:31:40.601Z,103539.25
2023-02-08T01:34:08.969Z,103538.97
2023-02-08T01:36:36.350Z,103548.31
2023-02-08T01:39:04.273Z,103543.47
2023-02-08T01:41:37.512Z,103541.38
2023-02-08T01:44:19.340Z,103534.88
2023-02-08T01:46:48.927Z,103538.66
2023-02-08T01:49:36.565Z,103530.19
2023-02-08T01:52:10.267Z,103535.47
2023-02-08T01:54:40.866Z,103529.72
2023-02-08T01:57:07.931Z,103522.50
2023-02-08T01:59:39.608Z,103518.28
2023-02-08T02:02:08.352Z,103515.72
2023-02-08T02:04:35.515Z,103516.28
2023-02-08T02:07:03.937Z,103514.63
2023-02-08T02:09:38.616Z,103523.56
2023-02-08T02:12:06.497Z,103519.94
2023-02-08T02:14:33.864Z,103512.06
2023-02-08T02:17:01.282Z,103518.69
2023-02-08T02:19:30.933Z,103517.63
2023-02-08T02:22:11.228Z,103506.75
2023-02-08T02:24:56.829Z,103525.81
2023-02-08T02:27:49.381Z,103517.63
2023-02-08T02:30:34.929Z,103519.72
2023-02-08T02:33:18.881Z,103519.44
2023-02-08T02:36:01.010Z,103529.25
2023-02-08T02:38:49.181Z,103529.69
2023-02-08T02:41:57.912Z,103523.25
2023-02-08T02:44:37.198Z,103522.50
2023-02-08T02:47:16.794Z,103524.72
2023-02-08T02:49:49.525Z,103525.59
2023-02-08T02:52:33.492Z,103531.34
2023-02-08T02:55:05.580Z,103536.63
2023-02-08T02:57:33.592Z,103528.63
2023-02-08T03:00:00.448Z,103534.81
2023-02-08T03:02:27.787Z,103535.06
2023-02-08T03:04:56.272Z,103526.38
2023-02-08T03:07:34.453Z,103534.34
2023-02-08T03:10:35.167Z,103539.63
2023-02-08T03:13:20.988Z,103551.22
2023-02-08T03:16:06.270Z,103547.47
2023-02-08T03:19:00.851Z,103546.00
2023-02-08T03:21:38.284Z,103551.06
2023-02-08T03:24:56.023Z,103546.25
2023-02-08T03:27:31.505Z,103552.59
2023-02-08T03:30:16.052Z,103552.44
2023-02-08T03:33:14.012Z,103550.88
2023-02-08T03:35:45.651Z,103555.44
2023-02-08T03:38:26.111Z,103556.16
2023-02-08T03:40:53.909Z,103557.53
2023-02-08T03:43:27.476Z,103555.00
2023-02-08T03:46:05.594Z,103557.94
2023-02-08T03:48:34.630Z,103552.81
2023-02-08T03:51:02.214Z,103545.72
2023-02-08T03:53:29.743Z,103554.47
2023-02-08T03:56:00.122Z,103550.88
2023-02-08T03:58:32.586Z,103556.13
2023-02-08T04:01:04.266Z,103547.03
2023-02-08T04:03:32.523Z,103555.63
2023-02-08T04:05:59.351Z,103558.81
2023-02-08T04:08:26.344Z,103569.41
2023-02-08T04:10:52.961Z,103563.38
2023-02-08T04:13:19.544Z,103568.31
2023-02-08T04:15:46.185Z,103562.13
2023-02-08T04:18:13.268Z,103559.81
2023-02-08T04:20:40.258Z,103558.75
2023-02-08T04:23:07.055Z,103558.66
2023-02-08T04:25:33.687Z,103552.72
2023-02-08T04:28:00.346Z,103554.53
2023-02-08T04:30:26.984Z,103557.44
2023-02-08T04:32:56.772Z,103552.44
2023-02-08T04:35:23.394Z,103543.25
2023-02-08T04:37:50.005Z,103550.91
2023-02-08T04:40:16.895Z,103551.81
2023-02-08T04:42:43.505Z,103546.97
2023-02-08T04:45:10.416Z,103552.53
2023-02-08T04:47:37.237Z,103545.16
2023-02-08T04:50:04.670Z,103536.59
2023-02-08T04:52:31.314Z,103541.19
2023-02-08T04:54:57.932Z,103536.06
2023-02-08T04:57:24.553Z,103528.38
2023-02-08T04:59:51.340Z,103531.22
2023-02-08T05:02:17.971Z,103529.84
2023-02-08T05:04:44.826Z,103527.63
2023-02-08T05:07:11.477Z,103530.94
2023-02-08T05:09:38.090Z,103533.31
2023-02-08T05:12:05.005Z,103525.63
2023-02-08T05:14:31.588Z,103517.38
2023-02-08T05:16:58.236Z,103519.19
2023-02-08T05:19:24.868Z,103526.72
2023-02-08T05:21:51.470Z,103530.69
2023-02-08T05:24:18.104Z,103531.56
2023-02-08T05:26:44.735Z,103540.63
2023-02-08T05:29:11.328Z,103542.47
2023-02-08T05:31:38.120Z,103541.56
2023-02-08T05:34:04.845Z,103555.00
2023-02-08T05:36:31.485Z,103556.78
2023-02-08T05:38:58.132Z,103552.50
2023-02-08T05:41:24.778Z,103559.19
2023-02-08T05:43:51.425Z,103569.59
2023-02-08T05:46:18.287Z,103565.16
2023-02-08T05:48:45.284Z,103568.00
2023-02-08T05:51:12.034Z,103565.13
2023-02-08T05:53:38.933Z,103568.91
2023-02-08T05:56:05.734Z,103574.94
2023-02-08T05:59:05.675Z,103570.59
2023-02-08T06:01:34.243Z,103583.25
2023-02-08T06:04:01.222Z,103562.69
2023-02-08T06:06:28.104Z,103565.03
2023-02-08T06:08:54.863Z,103568.16
2023-02-08T06:11:21.672Z,103576.13
2023-02-08T06:13:48.286Z,103581.25
2023-02-08T06:16:15.289Z,103573.88
2023-02-08T06:18:42.082Z,103579.16
2023-02-08T06:21:08.702Z,103581.72
2023-02-08T06:23:35.307Z,103578.28
2023-02-08T06:26:02.214Z,103578.13
2023-02-08T06:28:28.990Z,103586.41
2023-02-08T06:30:55.763Z,103586.09
2023-02-08T06:33:22.466Z,103584.91
2023-02-08T06:35:52.066Z,103579.00
2023-02-08T06:38:18.978Z,103581.59
2023-02-08T06:40:49.649Z,103586.56
2023-02-08T06:43:16.996Z,103585.50
2023-02-08T06:45:47.454Z,103586.69
2023-02-08T06:48:14.432Z,103589.41
2023-02-08T06:50:41.513Z,103594.84
2023-02-08T06:53:08.733Z,103593.94
2023-02-08T06:55:35.691Z,103594.25
2023-02-08T06:58:02.367Z,103593.72
2023-02-08T07:00:29.173Z,103591.00
2023-02-08T07:02:56.067Z,103588.09
2023-02-08T07:05:22.804Z,103584.06
2023-02-08T07:07:49.606Z,103600.34
2023-02-08T07:10:16.829Z,103589.56
2023-02-08T07:12:43.546Z,103604.94
2023-02-08T07:15:13.233Z,103605.41
2023-02-08T07:17:40.252Z,103607.06
2023-02-08T07:20:07.577Z,103606.16
2023-02-08T07:22:34.353Z,103614.59
2023-02-08T07:25:01.210Z,103613.25
2023-02-08T07:27:28.257Z,103613.44
2023-02-08T07:29:54.875Z,103615.69
2023-02-08T07:32:21.515Z,103618.13
2023-02-08T07:34:48.110Z,103619.50
2023-02-08T07:37:14.750Z,103626.75
2023-02-08T07:39:41.384Z,103616.25
2023-02-08T07:42:08.990Z,103614.56
2023-02-08T07:44:37.550Z,103620.03
2023-02-08T07:47:05.177Z,103620.28
2023-02-08T07:49:32.700Z,103620.28
2023-02-08T07:52:00.422Z,103614.56
2023-02-08T07:54:27.239Z,103617.78
2023-02-08T07:56:53.984Z,103614.59
2023-02-08T07:59:20.937Z,103620.97
2023-02-08T08:01:47.705Z,103616.00
2023-02-08T08:04:16.041Z,103616.59
2023-02-08T08:06:42.701Z,103614.06
2023-02-08T08:09:09.397Z,103613.59
2023-02-08T08:11:36.064Z,103616.78
2023-02-08T08:14:02.639Z,103612.69
2023-02-08T08:16:29.314Z,103612.69
2023-02-08T08:18:55.945Z,103603.47
2023-02-08T08:21:22.546Z,103608.91
2023-02-08T08:23:49.147Z,103603.88
2023-02-08T08:26:17.559Z,103616.41
2023-02-08T08:28:44.282Z,103607.75
2023-02-08T08:31:17.016Z,103605.78
2023-02-08T08:33:44.066Z,103600.91
2023-02-08T08:36:10.723Z,103599.28
2023-02-08T08:38:41.109Z,103591.88
2023-02-08T08:41:14.710Z,103596.69
2023-02-08T08:43:41.477Z,103602.09
2023-02-08T08:46:08.513Z,103598.06
2023-02-08T08:48:36.333Z,103594.88
2023-02-08T08:51:03.132Z,103597.41
2023-02-08T08:53:29.750Z,103599.13
2023-02-08T08:55:56.352Z,103600.88
2023-02-08T08:58:23.053Z,103594.13
2023-02-08T09:00:49.874Z,103602.44
2023-02-08T09:03:16.548Z,103599.84
2023-02-08T09:05:43.172Z,103601.38
2023-02-08T09:08:09.826Z,103596.75
2023-02-08T09:10:36.503Z,103597.31
2023-02-08T09:13:03.523Z,103598.66
2023-02-08T09:15:30.266Z,103602.13
2023-02-08T09:17:56.967Z,103594.75
2023-02-08T09:20:24.082Z,103595.81
2023-02-08T09:22:50.924Z,103598.00
2023-02-08T09:25:17.598Z,103593.84
2023-02-08T09:27:44.330Z,103594.09
2023-02-08T09:30:11.272Z,103591.34
2023-02-08T09:32:39.878Z,103577.91
2023-02-08T09:35:07.816Z,103583.66
2023-02-08T09:37:35.149Z,103573.69
2023-02-08T09:40:01.854Z,103559.06
2023-02-08T09:42:37.445Z,103559.50
2023-02-08T09:45:19.210Z,103565.69
2023-02-08T09:47:58.266Z,103556.88
2023-02-08T09:50:44.661Z,103559.16
2023-02-08T09:53:30.645Z,103556.81
2023-02-08T09:56:01.774Z,103560.31
2023-02-08T09:58:34.380Z,103555.53
2023-02-08T10:01:02.410Z,103566.16
2023-02-08T10:03:38.329Z,103561.88
2023-02-08T10:06:10.409Z,103565.50
2023-02-08T10:08:37.366Z,103566.41
2023-02-08T10:11:25.382Z,103563.38
2023-02-08T10:14:13.306Z,103551.31
2023-02-08T10:17:04.974Z,103562.59
2023-02-08T10:19:42.397Z,103555.91
2023-02-08T10:22:23.908Z,103554.09
2023-02-08T10:24:53.483Z,103553.19
2023-02-08T10:27:25.878Z,103539.50
2023-02-08T10:30:17.090Z,103537.50
2023-02-08T10:33:02.754Z,103519.59
2023-02-08T10:35:42.597Z,103533.56
2023-02-08T10:38:37.210Z,103525.81
2023-02-08T10:41:17.205Z,103520.13
2023-02-08T10:43:49.349Z,103523.06
2023-02-08T10:46:31.145Z,103517.75
2023-02-08T10:49:36.050Z,103518.28
2023-02-08T10:52:02.812Z,103513.75
2023-02-08T10:54:29.485Z,103510.94
2023-02-08T10:56:58.322Z,103502.41
2023-02-08T10:59:29.284Z,103499.31
2023-02-08T11:01:56.496Z,103494.09
2023-02-08T11:04:23.188Z,103488.97
2023-02-08T11:06:50.288Z,103495.75
2023-02-08T11:09:25.539Z,103482.00
2023-02-08T11:11:54.400Z,103482.78
2023-02-08T11:14:40.975Z,103471.03
2023-02-08T11:17:41.810Z,103477.06
2023-02-08T11:20:27.174Z,103476.72
2023-02-08T11:22:54.231Z,103477.53
2023-02-08T11:25:35.993Z,103485.22
2023-02-08T11:28:03.315Z,103486.84
2023-02-08T11:30:30.596Z,103492.66
2023-02-08T11:33:18.817Z,103486.28
2023-02-08T11:36:03.778Z,103485.22
2023-02-08T11:38:31.885Z,103486.84
2023-02-08T11:41:01.639Z,103479.47
2023-02-08T11:43:31.123Z,103485.34
2023-02-08T11:45:58.568Z,103488.44
2023-02-08T11:48:52.001Z,103490.44
2023-02-08T11:51:31.709Z,103496.56
2023-02-08T11:54:00.978Z,103480.03
2023-02-08T11:56:36.591Z,103482.09
2023-02-08T11:59:05.065Z,103473.72
2023-02-08T12:01:34.363Z,103477.66
2023-02-08T12:04:02.884Z,103478.31
2023-02-08T12:06:54.669Z,103481.31
2023-02-08T12:09:42.611Z,103483.22
2023-02-08T12:12:25.258Z,103485.78
2023-02-08T12:15:10.756Z,103485.41
2023-02-08T12:18:09.094Z,103480.41
2023-02-08T12:20:47.005Z,103485.78
2023-02-08T12:23:35.805Z,103476.44
2023-02-08T12:26:09.446Z,103477.50
2023-02-08T12:29:06.838Z,103465.63
2023-02-08T12:31:45.460Z,103467.50
2023-02-08T12:34:42.638Z,103458.94
2023-02-08T12:37:59.976Z,103456.94
2023-02-08T12:41:00.552Z,103454.81
2023-02-08T12:43:42.546Z,103450.09
2023-02-08T12:46:22.570Z,103453.19
2023-02-08T12:48:55.252Z,103453.94
2023-02-08T12:51:36.365Z,103446.03
2023-02-08T12:54:13.011Z,103439.41
2023-02-08T12:56:46.591Z,103437.16
2023-02-08T12:59:28.826Z,103443.28
2023-02-08T13:01:59.878Z,103442.09
2023-02-08T13:04:38.391Z,103431.59
2023-02-08T13:07:19.541Z,103435.50
2023-02-08T13:09:55.566Z,103433.97
2023-02-08T13:12:26.844Z,103425.09
2023-02-08T13:15:28.394Z,103425.88
2023-02-08T13:17:59.311Z,103422.19
2023-02-08T13:20:37.692Z,103424.09
2023-02-08T13:23:23.024Z,103420.75
2023-02-08T13:25:53.610Z,103421.22
2023-02-08T13:28:24.872Z,103423.38
2023-02-08T13:30:58.727Z,103417.25
2023-02-08T13:33:59.558Z,103411.31
2023-02-08T13:36:33.409Z,103410.25
2023-02-08T13:39:01.758Z,103417.00
2023-02-08T13:41:29.864Z,103406.13
2023-02-08T13:44:05.330Z,103405.56
2023-02-08T13:46:46.363Z,103410.78
2023-02-08T13:49:42.627Z,103405.84
2023-02-08T13:52:13.120Z,103399.78
2023-02-08T13:54:39.777Z,103390.47
2023-02-08T13:57:44.622Z,103395.16
2023-02-08T14:00:25.801Z,103385.78
2023-02-08T14:03:07.764Z,103383.91
2023-02-08T14:05:58.645Z,103380.03
2023-02-08T14:08:32.448Z,103378.94
2023-02-08T14:11:27.960Z,103381.66
2023-02-08T14:13:59.910Z,103379.03
2023-02-08T14:16:28.367Z,103377.94
2023-02-08T14:18:57.544Z,103369.97
2023-02-08T14:21:31.410Z,103374.28
2023-02-08T14:24:25.953Z,103368.72
2023-02-08T14:27:09.961Z,103364.22
2023-02-08T14:29:36.942Z,103364.53
2023-02-08T14:32:05.115Z,103357.25
2023-02-08T14:34:35.325Z,103365.00
2023-02-08T14:37:11.314Z,103360.13
2023-02-08T14:39:37.999Z,103361.09
2023-02-08T14:42:08.722Z,103357.22
2023-02-08T14:44:38.453Z,103344.56
2023-02-08T14:47:11.875Z,103348.28
2023-02-08T14:49:41.996Z,103345.81
2023-02-08T14:52:15.791Z,103342.63
2023-02-08T14:54:50.788Z,103340.13
2023-02-08T14:57:25.692Z,103337.25
2023-02-08T14:59:53.847Z,103330.72
2023-02-08T15:02:22.359Z,103330.16
2023-02-08T15:04:49.121Z,103329.47
2023-02-08T15:07:51.253Z,103328.31
2023-02-08T15:10:19.337Z,103327.13
2023-02-08T15:12:49.723Z,103321.75
2023-02-08T15:15:24.304Z,103314.59
2023-02-08T15:17:51.918Z,103314.59
2023-02-08T15:20:25.102Z,103315.88
2023-02-08T15:23:00.820Z,103312.16
2023-02-08T15:25:33.407Z,103309.47
2023-02-08T15:28:24.345Z,103311.41
2023-02-08T15:31:00.359Z,103295.91
2023-02-08T15:33:27.395Z,103305.13
2023-02-08T15:36:05.192Z,103300.28
2023-02-08T15:38:33.067Z,103288.47
2023-02-08T15:41:09.294Z,103282.84
2023-02-08T15:43:37.037Z,103278.06
2023-02-08T15:46:06.710Z,103283.34
2023-02-08T15:48:33.882Z,103280.97
2023-02-08T15:51:01.339Z,103276.75
2023-02-08T15:53:28.220Z,103282.22
2023-02-08T15:55:58.303Z,103281.03
2023-02-08T15:58:30.847Z,103277.19
2023-02-08T16:00:59.707Z,103284.09
2023-02-08T16:03:27.908Z,103283.22
2023-02-08T16:06:02.833Z,103295.03
2023-02-08T16:08:38.257Z,103291.03
2023-02-08T16:11:14.975Z,103286.56
2023-02-08T16:13:46.895Z,103282.75
2023-02-08T16:16:19.618Z,103279.28
2023-02-08T16:18:58.482Z,103279.88
2023-02-08T16:21:25.001Z,103284.63
2023-02-08T16:23:57.165Z,103280.81
2023-02-08T16:26:27.561Z,103280.94
2023-02-08T16:29:00.939Z,103271.91
2023-02-08T16:31:30.818Z,103267.19
2023-02-08T16:34:08.584Z,103273.16
2023-02-08T16:36:39.080Z,103276.34
2023-02-08T16:39:14.732Z,103274.91
2023-02-08T16:41:55.478Z,103276.94
2023-02-08T16:44:27.155Z,103270.19
2023-02-08T16:46:53.995Z,103277.84
2023-02-08T16:49:20.659Z,103270.16
2023-02-08T16:51:47.464Z,103281.09
2023-02-08T16:54:15.990Z,103283.03
2023-02-08T16:56:44.025Z,103293.50
2023-02-08T16:59:10.759Z,103296.06
2023-02-08T17:01:38.152Z,103298.78
2023-02-08T17:04:05.340Z,103296.16
2023-02-08T17:06:34.249Z,103290.31
2023-02-08T17:09:02.561Z,103292.00
2023-02-08T17:11:29.761Z,103287.50
2023-02-08T17:13:58.357Z,103294.03
2023-02-08T17:16:27.865Z,103290.88
2023-02-08T17:18:54.481Z,103288.19
2023-02-08T17:21:21.287Z,103289.50
2023-02-08T17:23:48.022Z,103294.06
2023-02-08T17:26:17.616Z,103289.22
2023-02-08T17:28:44.600Z,103285.16
2023-02-08T17:31:12.967Z,103283.25
2023-02-08T17:33:40.871Z,103284.41
2023-02-08T17:36:09.476Z,103286.94
2023-02-08T17:38:39.185Z,103281.44
2023-02-08T17:41:07.463Z,103283.56
2023-02-08T17:43:34.392Z,103280.16
2023-02-08T17:46:01.062Z,103270.59
2023-02-08T17:48:27.683Z,103263.63
2023-02-08T17:50:54.310Z,103263.63
2023-02-08T17:53:21.062Z,103254.63
2023-02-08T17:55:47.901Z,103243.41
2023-02-08T17:58:14.618Z,103246.19
2023-02-08T18:00:41.279Z,103239.00
2023-02-08T18:03:07.932Z,103236.72
2023-02-08T18:05:34.673Z,103230.75
2023-02-08T18:08:01.375Z,103232.09
2023-02-08T18:10:28.363Z,103225.66
2023-02-08T18:12:55.211Z,103225.97
2023-02-08T18:15:22.831Z,103222.38
2023-02-08T18:17:50.502Z,103227.06
2023-02-08T18:20:17.435Z,103221.38
2023-02-08T18:22:44.636Z,103216.25
2023-02-08T18:25:12.117Z,103215.72
2023-02-08T18:27:39.214Z,103217.41
2023-02-08T18:30:06.527Z,103214.34
2023-02-08T18:32:33.930Z,103213.56
2023-02-08T18:35:03.590Z,103210.56
2023-02-08T18:37:33.189Z,103211.56
2023-02-08T18:40:00.202Z,103213.56
2023-02-08T18:42:26.960Z,103200.00
2023-02-08T18:44:53.575Z,103207.28
2023-02-08T18:47:20.298Z,103209.84
2023-02-08T18:49:47.782Z,103192.66
2023-02-08T18:52:15.936Z,103190.50
2023-02-08T18:54:42.651Z,103192.88
2023-02-08T18:57:12.251Z,103184.09
2023-02-08T18:59:39.190Z,103179.72
2023-02-08T19:02:07.287Z,103175.84
2023-02-08T19:04:38.420Z,103184.78
2023-02-08T19:07:05.793Z,103180.84
2023-02-08T19:09:36.087Z,103174.34
2023-02-08T19:12:02.940Z,103177.13
2023-02-08T19:14:29.547Z,103181.56
2023-02-08T19:16:56.402Z,103173.38
2023-02-08T19:19:23.006Z,103169.75
2023-02-08T19:21:49.688Z,103163.34
2023-02-08T19:24:16.408Z,103159.19
2023-02-08T19:26:43.052Z,103160.94
2023-02-08T19:29:15.325Z,103171.97
2023-02-08T19:31:42.081Z,103177.88
2023-02-08T19:34:10.192Z,103178.53
2023-02-08T19:36:41.032Z,103174.38
2023-02-08T19:39:08.395Z,103178.50
2023-02-08T19:41:38.070Z,103165.63
2023-02-08T19:44:06.489Z,103155.00
2023-02-08T19:46:38.816Z,103155.78
2023-02-08T19:49:06.953Z,103143.94
2023-02-08T19:51:35.380Z,103147.84
2023-02-08T19:54:03.281Z,103140.59
2023-02-08T19:56:34.008Z,103140.66
2023-02-08T19:59:03.897Z,103135.16
2023-02-08T20:01:31.064Z,103136.56
2023-02-08T20:03:57.721Z,103138.97
2023-02-08T20:06:27.730Z,103135.09
2023-02-08T20:08:54.697Z,103124.03
2023-02-08T20:11:24.763Z,103119.50
2023-02-08T20:13:52.893Z,103127.53
2023-02-08T20:16:20.257Z,103125.91
2023-02-08T20:18:47.965Z,103119.84
2023-02-08T20:21:15.016Z,103119.66
2023-02-08T20:23:42.072Z,103114.59
2023-02-08T20:26:29.752Z,103106.31
2023-02-08T20:28:58.118Z,103089.44
2023-02-08T20:31:33.639Z,103089.31
2023-02-08T20:34:03.371Z,103081.66
2023-02-08T20:36:32.513Z,103077.56
2023-02-08T20:39:00.255Z,103078.78
2023-02-08T20:41:29.284Z,103068.69
2023-02-08T20:43:56.149Z,103071.31
2023-02-08T20:46:28.556Z,103073.00
2023-02-08T20:48:59.016Z,103065.69
2023-02-08T20:51:27.346Z,103066.16
2023-02-08T20:53:55.237Z,103075.19
2023-02-08T20:56:24.526Z,103065.50
2023-02-08T20:58:51.623Z,103065.28
2023-02-08T21:01:20.017Z,103068.94
2023-02-08T21:03:46.870Z,103064.78
2023-02-08T21:06:23.148Z,103067.59
2023-02-08T21:08:54.389Z,103065.19
2023-02-08T21:11:25.042Z,103057.44
2023-02-08T21:13:52.042Z,103059.13
2023-02-08T21:16:19.138Z,103048.59
2023-02-08T21:18:45.924Z,103057.16
2023-02-08T21:21:12.917Z,103057.53
2023-02-08T21:23:39.955Z,103060.56
2023-02-08T21:26:07.997Z,103047.41
2023-02-08T21:28:35.455Z,103053.38
2023-02-08T21:31:05.058Z,103055.28
2023-02-08T21:33:32.514Z,103048.44
2023-02-08T21:36:08.597Z,103055.13
2023-02-08T21:38:36.443Z,103044.66
2023-02-08T21:41:12.612Z,103045.09
2023-02-08T21:43:39.246Z,103036.91
2023-02-08T21:46:09.740Z,103033.03
2023-02-08T21:48:55.862Z,103039.38
2023-02-08T21:51:44.170Z,103028.06
2023-02-08T21:54:38.796Z,103013.78
2023-02-08T21:57:37.938Z,103008.97
2023-02-08T22:00:08.331Z,103004.34
2023-02-08T22:02:35.039Z,103003.56
2023-02-08T22:05:02.181Z,103001.72
2023-02-08T22:07:30.852Z,102998.94
2023-02-08T22:09:57.485Z,103000.56
2023-02-08T22:12:24.287Z,102993.81
2023-02-08T22:14:51.055Z,102985.63
2023-02-08T22:17:19.524Z,102983.38
2023-02-08T22:19:46.199Z,102970.19
2023-02-08T22:22:16.473Z,102973.44
2023-02-08T22:24:43.132Z,102972.28
2023-02-08T22:27:12.829Z,102966.50
2023-02-08T22:29:39.590Z,102969.25
2023-02-08T22:32:07.608Z,102968.66
2023-02-08T22:34:34.843Z,102959.66
2023-02-08T22:37:06.648Z,102960.34
2023-02-08T22:39:37.096Z,102956.91
2023-02-08T22:42:08.399Z,102965.50
2023-02-08T22:44:36.162Z,102961.06
2023-02-08T22:47:04.101Z,102972.28
2023-02-08T22:49:31.153Z,102968.19
2023-02-08T22:51:59.574Z,102962.50
2023-02-08T22:54:26.422Z,102959.56
2023-02-08T22:56:53.200Z,102974.03
2023-02-08T22:59:20.082Z,102976.13
2023-02-08T23:01:46.727Z,102978.59
2023-02-08T23:04:13.459Z,102972.22
2023-02-08T23:06:42.711Z,102964.22
2023-02-08T23:09:12.299Z,102965.47
2023-02-08T23:11:38.970Z,102970.13
2023-02-08T23:14:05.818Z,102968.50
2023-02-08T23:16:32.621Z,102970.31
2023-02-08T23:19:02.514Z,102957.03
2023-02-08T23:21:31.917Z,102962.69
2023-02-08T23:24:00.835Z,102951.66
2023-02-08T23:26:30.414Z,102956.19
2023-02-08T23:28:57.308Z,102953.09
2023-02-08T23:31:25.541Z,102950.69
2023-02-08T23:33:52.177Z,102949.47
2023-02-08T23:36:20.810Z,102949.97
2023-02-08T23:38:48.084Z,102952.16
2023-02-08T23:41:18.292Z,102949.81
2023-02-08T23:43:47.477Z,102941.50
2023-02-08T23:46:17.012Z,102939.59
2023-02-08T23:48:44.312Z,102925.38
2023-02-08T23:51:10.944Z,102927.56
2023-02-08T23:53:40.270Z,102929.50
2023-02-08T23:56:10.974Z,102931.47
2023-02-08T23:58:37.633Z,102922.31
